Time;durP1;ratioP1;P1;durP2;ratioP2;P2;SDS_P1;SDS_P2;PMS_P1;PMS_P2;Temp;Humidity;BMP_temperature;BMP_pressure;BME280_temperature;BME280_humidity;BME280_pressure;Samples;Min_cycle;Max_cycle;Signal;HPM_P1;HPM_P2
2021/06/24 00:01:42;;;;;;;2.97;1.57;;;16.90;99.70;;;;;;5012964;28;20957;-64
2021/06/24 00:04:10;;;;;;;2.97;1.70;;;17.00;99.70;;;;;;5011568;28;20457;-60
2021/06/24 00:06:37;;;;;;;2.00;1.80;;;16.90;99.70;;;;;;5013078;28;20433;-63
2021/06/24 00:09:04;;;;;;;2.47;1.50;;;16.90;99.70;;;;;;5013370;28;20437;-63
2021/06/24 00:11:31;;;;;;;2.70;1.60;;;16.90;99.70;;;;;;5013047;28;20441;-63
2021/06/24 00:13:58;;;;;;;2.90;1.70;;;16.90;99.70;;;;;;5012647;28;20885;-64
2021/06/24 00:16:26;;;;;;;3.97;2.03;;;17.00;99.70;;;;;;5012517;28;20539;-63
2021/06/24 00:18:53;;;;;;;2.20;1.60;;;16.90;99.70;;;;;;5011037;28;20465;-60
2021/06/24 00:21:21;;;;;;;1.90;1.40;;;16.90;99.70;;;;;;5012718;28;20475;-62
2021/06/24 00:23:48;;;;;;;3.10;1.80;;;16.90;99.70;;;;;;5012327;28;20473;-61
2021/06/24 00:26:15;;;;;;;2.83;1.70;;;16.80;99.70;;;;;;5012533;28;20512;-63
2021/06/24 00:28:42;;;;;;;1.80;1.40;;;16.80;99.70;;;;;;5013100;28;20946;-63
2021/06/24 00:31:09;;;;;;;1.97;1.50;;;16.80;99.70;;;;;;5013126;28;20449;-63
2021/06/24 00:33:35;;;;;;;2.70;1.43;;;16.80;99.70;;;;;;5012640;28;20469;-63
2021/06/24 00:36:02;;;;;;;4.40;1.57;;;16.80;99.70;;;;;;5012547;28;20492;-63
2021/06/24 00:38:31;;;;;;;2.90;1.70;;;16.80;99.70;;;;;;5013310;28;20480;-62
2021/06/24 00:40:59;;;;;;;2.43;1.50;;;16.80;99.70;;;;;;5013399;28;20464;-63
2021/06/24 00:43:26;;;;;;;3.50;1.70;;;16.80;99.70;;;;;;5013473;28;20500;-64
2021/06/24 00:45:53;;;;;;;2.77;1.80;;;16.90;99.70;;;;;;5011943;28;20449;-59
2021/06/24 00:48:20;;;;;;;3.47;1.70;;;16.80;99.70;;;;;;5012834;28;20461;-63
2021/06/24 00:50:47;;;;;;;2.47;1.50;;;16.90;99.70;;;;;;5012899;28;20800;-65
2021/06/24 00:53:15;;;;;;;2.77;1.80;;;17.10;99.70;;;;;;5012824;28;20843;-62
2021/06/24 00:55:45;;;;;;;2.37;1.80;;;17.00;99.70;;;;;;5013155;28;20481;-63
2021/06/24 00:58:14;;;;;;;3.10;1.90;;;17.00;99.70;;;;;;5014411;28;20647;-64
2021/06/24 01:00:42;;;;;;;2.37;1.67;;;16.90;99.70;;;;;;5014388;28;20596;-62
2021/06/24 01:03:09;;;;;;;2.27;1.70;;;16.90;99.70;;;;;;5013908;28;20484;-63
2021/06/24 01:05:36;;;;;;;3.87;1.90;;;16.90;99.70;;;;;;5013280;28;20472;-65
2021/06/24 01:08:04;;;;;;;3.20;1.93;;;16.90;99.70;;;;;;5014101;28;20476;-64
2021/06/24 01:10:31;;;;;;;3.07;1.77;;;16.90;99.70;;;;;;5014070;28;20454;-64
2021/06/24 01:12:59;;;;;;;2.00;1.40;;;16.90;99.70;;;;;;5014420;28;20468;-65
2021/06/24 01:15:26;;;;;;;2.67;1.63;;;16.90;99.70;;;;;;5014379;28;20489;-65
2021/06/24 01:17:53;;;;;;;4.10;2.43;;;16.90;99.70;;;;;;5017754;28;21017;-64
2021/06/24 01:20:24;;;;;;;2.53;1.60;;;16.90;99.70;;;;;;5016998;28;20449;-66
2021/06/24 01:22:51;;;;;;;2.83;1.60;;;16.80;99.70;;;;;;5018648;28;20469;-64
2021/06/24 01:25:20;;;;;;;3.20;2.00;;;16.80;99.70;;;;;;5018068;28;20906;-65
2021/06/24 01:27:47;;;;;;;1.70;1.27;;;16.90;99.70;;;;;;5016368;28;20456;-65
2021/06/24 01:30:15;;;;;;;2.83;1.80;;;16.90;99.70;;;;;;5016390;28;20661;-62
2021/06/24 01:32:42;;;;;;;2.53;1.57;;;16.90;99.70;;;;;;5016923;28;20469;-64
2021/06/24 01:35:10;;;;;;;2.70;1.70;;;16.90;99.70;;;;;;5015994;28;20935;-64
2021/06/24 01:37:36;;;;;;;3.50;1.60;;;17.00;99.70;;;;;;5016805;28;20532;-65
2021/06/24 01:40:04;;;;;;;2.80;1.67;;;16.90;99.70;;;;;;5016501;28;20441;-63
2021/06/24 01:42:32;;;;;;;8.60;1.60;;;16.90;99.70;;;;;;5016414;28;20481;-65
2021/06/24 01:44:59;;;;;;;3.10;1.70;;;16.90;99.70;;;;;;5015664;28;20481;-64
2021/06/24 01:47:25;;;;;;;4.00;1.70;;;16.80;99.70;;;;;;5016080;28;20446;-63
2021/06/24 01:49:52;;;;;;;2.43;1.77;;;16.80;99.70;;;;;;5016015;28;20942;-64
2021/06/24 01:52:19;;;;;;;3.07;1.60;;;16.80;99.70;;;;;;5016692;28;20989;-65
2021/06/24 01:54:47;;;;;;;2.97;1.87;;;16.80;99.70;;;;;;5015706;28;20449;-64
2021/06/24 01:57:16;;;;;;;3.13;1.90;;;16.80;99.70;;;;;;5015591;28;20579;-62
2021/06/24 01:59:44;;;;;;;2.07;1.60;;;16.80;99.70;;;;;;5015661;28;20445;-64
2021/06/24 02:02:11;;;;;;;2.60;1.70;;;16.70;99.70;;;;;;5015801;28;20477;-64
2021/06/24 02:04:37;;;;;;;2.97;1.70;;;16.80;99.70;;;;;;5015239;28;20452;-64
2021/06/24 02:07:04;;;;;;;2.93;1.70;;;16.80;99.70;;;;;;5016167;28;20463;-66
2021/06/24 02:09:31;;;;;;;2.67;2.07;;;16.80;99.70;;;;;;5016489;28;20445;-63
2021/06/24 02:11:59;;;;;;;3.27;1.80;;;16.80;99.70;;;;;;5015729;28;20450;-64
2021/06/24 02:14:26;;;;;;;2.50;1.60;;;16.90;99.70;;;;;;5015906;28;20454;-65
2021/06/24 02:16:54;;;;;;;2.60;2.03;;;16.90;99.70;;;;;;5015946;28;20488;-65
2021/06/24 02:19:20;;;;;;;2.77;1.57;;;16.80;99.70;;;;;;5014034;28;20449;-66
2021/06/24 02:21:47;;;;;;;3.10;1.60;;;16.80;99.70;;;;;;5015938;28;20448;-64
2021/06/24 02:24:14;;;;;;;2.83;1.60;;;16.80;99.70;;;;;;5015120;28;20448;-64
2021/06/24 02:26:40;;;;;;;2.60;1.50;;;16.80;99.70;;;;;;5015274;28;20453;-65
2021/06/24 02:29:07;;;;;;;3.20;2.23;;;16.80;99.70;;;;;;5015406;28;20441;-64
2021/06/24 02:31:34;;;;;;;4.37;2.17;;;16.80;99.70;;;;;;5016166;28;20967;-62
2021/06/24 02:34:02;;;;;;;2.63;1.90;;;16.80;99.70;;;;;;5015761;28;20460;-64
2021/06/24 02:36:29;;;;;;;2.93;1.70;;;16.80;99.70;;;;;;5016364;28;20481;-65
2021/06/24 02:38:55;;;;;;;2.43;1.60;;;16.70;99.70;;;;;;5016060;28;20445;-65
2021/06/24 02:41:22;;;;;;;3.00;1.70;;;16.70;99.70;;;;;;5016432;28;20450;-65
2021/06/24 02:43:49;;;;;;;2.67;1.67;;;16.70;99.70;;;;;;5015577;28;21009;-63
2021/06/24 02:46:15;;;;;;;3.00;1.60;;;16.60;99.70;;;;;;5015725;28;20452;-65
2021/06/24 02:48:42;;;;;;;3.30;1.70;;;16.60;99.70;;;;;;5016457;28;20461;-65
2021/06/24 02:51:10;;;;;;;3.23;1.93;;;16.60;99.70;;;;;;5016346;28;20481;-66
2021/06/24 02:53:37;;;;;;;1.70;1.40;;;16.50;99.70;;;;;;5016475;28;20472;-66
2021/06/24 02:56:04;;;;;;;2.67;1.67;;;16.50;99.70;;;;;;5016353;28;20539;-65
2021/06/24 02:58:31;;;;;;;2.33;1.40;;;16.40;99.70;;;;;;5017252;28;20445;-64
2021/06/24 03:00:58;;;;;;;2.43;1.50;;;16.40;99.70;;;;;;5016955;28;20934;-65
2021/06/24 03:03:24;;;;;;;2.40;1.73;;;16.30;99.70;;;;;;5015210;28;20573;-63
2021/06/24 03:05:51;;;;;;;3.20;1.47;;;16.30;99.70;;;;;;5013308;28;20499;-65
2021/06/24 03:08:20;;;;;;;3.27;1.77;;;16.30;99.70;;;;;;5015001;28;20453;-64
2021/06/24 03:10:47;;;;;;;2.70;1.73;;;16.40;99.70;;;;;;5013762;28;20445;-64
2021/06/24 03:13:14;;;;;;;3.10;1.97;;;16.40;99.70;;;;;;5014105;28;20469;-64
2021/06/24 03:15:41;;;;;;;3.67;2.10;;;16.30;99.70;;;;;;5013448;28;20446;-63
2021/06/24 03:18:07;;;;;;;6.07;2.50;;;16.30;99.70;;;;;;5014661;28;20446;-65
2021/06/24 03:20:34;;;;;;;4.57;2.53;;;16.30;99.70;;;;;;5012061;28;20449;-63
2021/06/24 03:23:01;;;;;;;5.07;2.27;;;16.30;99.70;;;;;;5013856;28;20461;-64
2021/06/24 03:25:30;;;;;;;3.87;2.37;;;16.30;99.70;;;;;;5013133;28;20480;-64
2021/06/24 03:27:57;;;;;;;5.17;2.53;;;16.30;99.70;;;;;;5013606;28;20442;-65
2021/06/24 03:30:24;;;;;;;4.80;2.07;;;16.30;99.70;;;;;;5015700;28;20898;-64
2021/06/24 03:32:51;;;;;;;5.13;3.07;;;16.30;99.70;;;;;;5014272;28;20477;-64
2021/06/24 03:35:18;;;;;;;4.50;2.17;;;16.30;99.70;;;;;;5012871;28;20457;-64
2021/06/24 03:37:45;;;;;;;5.53;2.53;;;16.30;99.70;;;;;;5014970;28;20477;-64
2021/06/24 03:40:17;;;;;;;3.07;2.10;;;16.30;99.70;;;;;;5014387;28;20970;-65
2021/06/24 03:42:46;;;;;;;4.53;2.13;;;16.30;99.70;;;;;;5014498;28;20473;-65
2021/06/24 03:45:15;;;;;;;3.63;2.10;;;16.30;99.70;;;;;;5013478;28;20449;-62
2021/06/24 03:47:42;;;;;;;3.30;2.00;;;16.30;99.70;;;;;;5014202;28;20508;-65
2021/06/24 03:50:10;;;;;;;4.00;1.90;;;16.30;99.70;;;;;;5014346;28;20453;-64
2021/06/24 03:52:37;;;;;;;3.17;2.00;;;16.20;99.70;;;;;;5014179;28;20462;-64
2021/06/24 03:55:05;;;;;;;2.20;1.70;;;16.30;99.70;;;;;;5014473;28;20645;-64
2021/06/24 03:57:32;;;;;;;3.80;2.10;;;16.20;99.70;;;;;;5014871;28;20481;-63
2021/06/24 04:00:00;;;;;;;2.67;1.90;;;16.30;99.70;;;;;;5015140;28;20453;-65
2021/06/24 04:02:27;;;;;;;2.03;1.70;;;16.30;99.70;;;;;;5080510;22;20480;-67
2021/06/24 04:04:53;;;;;;;2.47;2.10;;;16.30;99.70;;;;;;5028944;28;20445;-67
2021/06/24 04:07:20;;;;;;;2.57;1.80;;;16.40;99.70;;;;;;5029696;28;20960;-67
2021/06/24 04:09:47;;;;;;;2.40;1.73;;;16.40;99.70;;;;;;5029575;28;20449;-67
2021/06/24 04:12:13;;;;;;;3.10;1.93;;;16.50;99.70;;;;;;5029309;28;20532;-66
2021/06/24 04:14:40;;;;;;;2.67;1.80;;;16.60;99.70;;;;;;5028947;28;20522;-67
2021/06/24 04:17:08;;;;;;;5.07;2.00;;;16.60;99.70;;;;;;5029598;28;20487;-67
2021/06/24 04:19:35;;;;;;;2.40;1.67;;;16.60;99.70;;;;;;5028278;28;20957;-67
2021/06/24 04:22:01;;;;;;;3.90;2.40;;;16.60;99.70;;;;;;5029584;28;20931;-66
2021/06/24 04:24:28;;;;;;;2.87;1.67;;;16.70;99.70;;;;;;5028950;28;20448;-67
2021/06/24 04:26:54;;;;;;;5.20;2.17;;;16.60;99.70;;;;;;5029685;28;20452;-66
2021/06/24 04:29:21;;;;;;;3.33;2.27;;;16.70;99.70;;;;;;5029792;28;20448;-66
2021/06/24 04:31:48;;;;;;;5.30;2.50;;;16.70;99.70;;;;;;5029391;28;20456;-67
2021/06/24 04:34:16;;;;;;;3.40;2.07;;;16.70;99.70;;;;;;5028410;28;20461;-66
2021/06/24 04:36:44;;;;;;;4.73;2.50;;;16.70;99.70;;;;;;5029371;28;20476;-67
2021/06/24 04:39:12;;;;;;;3.87;2.27;;;16.70;99.70;;;;;;5029371;28;20992;-66
2021/06/24 04:41:38;;;;;;;5.97;2.50;;;16.70;99.70;;;;;;5017126;28;20890;-67
2021/06/24 04:44:06;;;;;;;3.57;2.23;;;16.70;99.70;;;;;;5017426;28;20480;-67
2021/06/24 04:46:32;;;;;;;4.10;2.33;;;16.70;99.70;;;;;;5015178;28;20440;-66
2021/06/24 04:48:59;;;;;;;3.10;2.10;;;16.70;99.70;;;;;;5020080;28;20433;-66
2021/06/24 04:51:27;;;;;;;3.33;2.40;;;16.70;99.70;;;;;;5020559;28;20453;-67
2021/06/24 04:53:54;;;;;;;4.90;2.80;;;16.60;99.70;;;;;;5020941;28;20476;-67
2021/06/24 04:56:21;;;;;;;3.90;2.40;;;16.60;99.70;;;;;;5023566;28;20476;-67
2021/06/24 04:58:47;;;;;;;3.70;2.10;;;16.70;99.70;;;;;;5021623;28;20946;-67
2021/06/24 05:01:14;;;;;;;3.67;2.43;;;16.80;99.70;;;;;;5022379;28;20456;-67
2021/06/24 05:03:41;;;;;;;4.37;2.13;;;16.80;99.70;;;;;;5024012;28;20473;-67
2021/06/24 05:06:09;;;;;;;4.33;2.47;;;16.80;99.70;;;;;;5016047;28;20736;-67
2021/06/24 05:08:38;;;;;;;4.97;2.70;;;16.80;99.70;;;;;;5023340;28;20440;-66
2021/06/24 05:11:05;;;;;;;4.97;2.50;;;16.80;99.70;;;;;;5021935;28;20939;-67
2021/06/24 05:13:32;;;;;;;3.77;2.00;;;17.00;99.70;;;;;;5022950;28;20468;-67
2021/06/24 05:15:59;;;;;;;4.67;2.60;;;17.20;99.70;;;;;;5017630;28;20453;-67
2021/06/24 05:18:27;;;;;;;5.83;2.80;;;17.20;99.70;;;;;;5014599;28;20441;-66
2021/06/24 05:20:55;;;;;;;4.57;2.50;;;17.30;99.70;;;;;;5012159;28;20441;-66
2021/06/24 05:23:21;;;;;;;3.93;2.47;;;17.40;99.70;;;;;;5018823;28;20464;-67
2021/06/24 05:25:49;;;;;;;6.27;3.03;;;17.40;99.70;;;;;;5032208;28;20447;-67
2021/06/24 05:28:16;;;;;;;5.73;3.00;;;17.50;99.70;;;;;;5017027;28;20436;-66
2021/06/24 05:30:44;;;;;;;5.07;2.50;;;17.40;99.70;;;;;;5023287;28;20961;-67
2021/06/24 05:33:11;;;;;;;5.40;2.60;;;17.30;99.70;;;;;;5033026;28;20496;-66
2021/06/24 05:35:38;;;;;;;6.47;2.87;;;17.40;99.70;;;;;;5022008;28;20448;-67
2021/06/24 05:38:08;;;;;;;9.53;3.40;;;17.60;99.70;;;;;;5012865;28;20499;-66
2021/06/24 05:40:35;;;;;;;6.87;2.80;;;17.70;99.70;;;;;;5021983;28;20480;-66
2021/06/24 05:43:03;;;;;;;4.70;2.70;;;18.00;99.70;;;;;;5026246;28;20850;-67
2021/06/24 05:45:30;;;;;;;5.70;2.90;;;17.80;99.70;;;;;;5032033;28;20444;-66
2021/06/24 05:47:57;;;;;;;5.00;2.70;;;18.00;99.70;;;;;;5029180;28;20450;-67
2021/06/24 05:50:25;;;;;;;4.70;2.70;;;18.00;99.70;;;;;;5018476;28;20445;-66
2021/06/24 05:52:53;;;;;;;5.87;3.10;;;17.90;99.70;;;;;;5012999;28;20481;-67
2021/06/24 05:55:20;;;;;;;5.37;3.13;;;17.90;99.70;;;;;;5012371;28;20903;-67
2021/06/24 05:57:47;;;;;;;5.13;2.60;;;18.00;99.70;;;;;;5012681;28;20908;-67
2021/06/24 06:00:16;;;;;;;5.50;2.97;;;18.10;99.70;;;;;;5012878;28;20453;-67
2021/06/24 06:02:42;;;;;;;7.30;2.77;;;18.20;99.70;;;;;;5011085;28;20480;-67
2021/06/24 06:05:10;;;;;;;4.87;2.57;;;18.20;99.70;;;;;;5012608;28;20973;-67
2021/06/24 06:07:37;;;;;;;5.60;2.70;;;18.10;99.70;;;;;;5012643;28;20453;-67
2021/06/24 06:10:04;;;;;;;5.60;2.87;;;18.20;99.70;;;;;;5012725;28;20874;-67
2021/06/24 06:12:31;;;;;;;4.97;2.63;;;18.30;99.70;;;;;;5012490;28;20469;-67
2021/06/24 06:14:57;;;;;;;3.73;2.70;;;18.30;99.70;;;;;;5012201;28;20450;-66
2021/06/24 06:17:25;;;;;;;6.10;3.10;;;18.30;99.70;;;;;;5012478;28;20499;-67
2021/06/24 06:19:52;;;;;;;4.50;2.50;;;18.30;99.70;;;;;;5011932;28;20838;-67
2021/06/24 06:22:18;;;;;;;4.20;2.67;;;18.40;99.70;;;;;;5012329;28;20847;-67
2021/06/24 06:24:45;;;;;;;5.27;2.57;;;18.70;99.70;;;;;;5012023;28;20456;-67
2021/06/24 06:27:12;;;;;;;11.23;2.77;;;18.80;99.70;;;;;;5012412;28;20434;-67
2021/06/24 06:29:38;;;;;;;4.90;2.97;;;18.70;99.70;;;;;;5012196;28;20445;-67
2021/06/24 06:32:06;;;;;;;5.10;2.63;;;18.70;99.70;;;;;;5012365;28;20976;-67
2021/06/24 06:34:34;;;;;;;4.77;2.40;;;18.70;99.70;;;;;;5011897;28;20461;-66
2021/06/24 06:37:01;;;;;;;5.93;3.10;;;18.90;99.70;;;;;;5012119;28;20872;-67
2021/06/24 06:39:28;;;;;;;6.20;3.13;;;19.20;99.70;;;;;;5012167;28;20442;-67
2021/06/24 06:41:54;;;;;;;4.13;3.00;;;19.90;99.70;;;;;;5012151;28;20777;-67
2021/06/24 06:44:21;;;;;;;4.27;2.50;;;19.80;99.70;;;;;;5011637;28;20556;-67
2021/06/24 06:46:48;;;;;;;3.67;2.33;;;19.80;99.70;;;;;;5011924;28;20449;-67
2021/06/24 06:49:14;;;;;;;4.13;2.30;;;21.00;99.70;;;;;;5011877;28;20445;-67
2021/06/24 06:51:42;;;;;;;4.77;2.77;;;21.10;99.70;;;;;;5011811;28;20449;-67
2021/06/24 06:54:09;;;;;;;4.37;2.30;;;20.60;99.70;;;;;;5010966;28;20465;-66
2021/06/24 06:56:36;;;;;;;3.70;2.40;;;20.90;99.70;;;;;;5011944;28;20671;-67
2021/06/24 06:59:05;;;;;;;5.07;2.90;;;21.10;99.70;;;;;;5011819;28;20535;-67
2021/06/24 07:01:32;;;;;;;4.67;2.80;;;20.70;99.70;;;;;;5011486;28;20452;-67
2021/06/24 07:03:59;;;;;;;3.90;2.60;;;20.30;99.70;;;;;;5011481;28;20472;-67
2021/06/24 07:06:28;;;;;;;4.47;2.60;;;20.00;99.70;;;;;;5011264;28;20452;-67
2021/06/24 07:08:56;;;;;;;4.87;2.70;;;19.80;99.70;;;;;;5011726;28;20874;-67
2021/06/24 07:11:23;;;;;;;4.30;2.60;;;19.70;99.70;;;;;;5011478;28;20936;-67
2021/06/24 07:13:50;;;;;;;4.33;2.40;;;19.50;99.70;;;;;;5010994;28;20477;-66
2021/06/24 07:16:17;;;;;;;4.67;2.60;;;19.30;99.70;;;;;;5012958;28;20553;-67
2021/06/24 07:18:44;;;;;;;4.43;2.63;;;19.40;99.70;;;;;;5029542;28;20587;-65
2021/06/24 07:21:11;;;;;;;5.57;2.70;;;19.40;99.70;;;;;;5030855;28;20444;-67
2021/06/24 07:23:37;;;;;;;5.30;3.10;;;19.20;99.70;;;;;;5030904;28;20476;-67
2021/06/24 07:26:06;;;;;;;4.20;2.47;;;19.20;99.70;;;;;;5030449;28;20441;-67
2021/06/24 07:28:32;;;;;;;4.70;2.50;;;19.00;99.70;;;;;;5030868;28;20452;-67
2021/06/24 07:30:59;;;;;;;3.93;2.30;;;19.00;99.70;;;;;;5030775;28;20455;-67
2021/06/24 07:33:26;;;;;;;4.17;2.60;;;19.00;99.70;;;;;;5027804;28;20484;-67
2021/06/24 07:35:52;;;;;;;4.17;2.70;;;19.00;99.70;;;;;;5030589;28;20456;-67
2021/06/24 07:38:19;;;;;;;4.30;3.00;;;19.00;99.70;;;;;;5030019;28;20488;-67
2021/06/24 07:40:46;;;;;;;5.10;2.40;;;18.90;99.70;;;;;;5030662;28;20445;-67
2021/06/24 07:43:14;;;;;;;5.33;2.80;;;18.90;99.70;;;;;;5030179;28;20471;-67
2021/06/24 07:45:40;;;;;;;3.70;2.30;;;19.00;99.70;;;;;;5030309;28;20449;-67
2021/06/24 07:48:08;;;;;;;4.37;2.53;;;19.00;99.70;;;;;;5030219;28;20440;-67
2021/06/24 07:50:37;;;;;;;4.97;2.90;;;18.90;99.70;;;;;;5030513;28;20445;-67
2021/06/24 07:53:04;;;;;;;5.87;3.00;;;19.00;99.70;;;;;;5029756;28;20464;-67
2021/06/24 07:55:34;;;;;;;5.73;3.03;;;19.00;99.70;;;;;;5030151;28;20451;-67
2021/06/24 07:58:01;;;;;;;5.23;2.90;;;19.00;99.70;;;;;;5029877;28;21021;-67
2021/06/24 08:00:29;;;;;;;5.63;2.83;;;19.10;99.70;;;;;;5030132;28;20459;-67
2021/06/24 08:02:55;;;;;;;4.97;2.60;;;19.20;99.70;;;;;;5029761;28;20483;-67
2021/06/24 08:05:22;;;;;;;5.67;3.20;;;19.10;99.70;;;;;;5029968;28;20448;-67
2021/06/24 08:07:49;;;;;;;5.03;3.00;;;19.20;99.70;;;;;;5029406;28;20960;-67
2021/06/24 08:10:16;;;;;;;6.90;3.17;;;19.10;99.70;;;;;;5028106;28;20507;-66
2021/06/24 08:12:44;;;;;;;4.60;2.70;;;19.30;99.70;;;;;;5028254;28;21046;-67
2021/06/24 08:15:13;;;;;;;4.87;2.73;;;19.40;99.70;;;;;;5028001;28;20444;-67
2021/06/24 08:17:42;;;;;;;4.57;2.60;;;19.30;99.70;;;;;;5028410;28;20563;-67
2021/06/24 08:20:10;;;;;;;3.90;2.37;;;19.20;99.70;;;;;;5027834;28;20444;-67
2021/06/24 08:22:37;;;;;;;4.60;2.77;;;19.20;99.70;;;;;;5028426;28;20542;-67
2021/06/24 08:25:04;;;;;;;4.73;2.63;;;19.10;99.70;;;;;;5028707;28;20445;-67
2021/06/24 08:27:31;;;;;;;4.40;2.70;;;19.10;99.70;;;;;;5030018;28;20448;-67
2021/06/24 08:29:58;;;;;;;3.53;2.63;;;19.20;99.70;;;;;;5029764;28;20480;-67
2021/06/24 08:32:25;;;;;;;5.07;3.00;;;19.10;99.70;;;;;;5027707;28;20484;-67
2021/06/24 08:34:53;;;;;;;5.10;3.10;;;19.10;99.70;;;;;;5029498;28;20445;-67
2021/06/24 08:37:20;;;;;;;4.40;3.00;;;19.10;99.70;;;;;;5030084;28;20445;-67
2021/06/24 08:39:48;;;;;;;4.67;3.10;;;19.20;99.70;;;;;;5029364;28;20838;-67
2021/06/24 08:42:15;;;;;;;7.10;3.53;;;19.20;99.70;;;;;;5029599;28;20488;-67
2021/06/24 08:44:44;;;;;;;4.73;2.80;;;19.30;99.70;;;;;;5029199;28;20480;-67
2021/06/24 08:47:13;;;;;;;4.40;2.60;;;19.40;99.70;;;;;;5029833;28;20453;-67
2021/06/24 08:49:41;;;;;;;4.40;2.80;;;19.60;99.70;;;;;;5029398;28;20464;-65
2021/06/24 08:52:10;;;;;;;5.43;2.63;;;19.70;99.70;;;;;;5029457;28;20441;-65
2021/06/24 08:54:37;;;;;;;6.17;3.33;;;19.60;99.70;;;;;;5028746;28;20448;-65
2021/06/24 08:57:04;;;;;;;4.50;2.83;;;19.60;99.70;;;;;;5012486;28;20470;-65
2021/06/24 08:59:31;;;;;;;4.80;2.83;;;19.60;99.70;;;;;;5009289;28;20481;-65
2021/06/24 09:01:58;;;;;;;4.77;3.30;;;19.80;99.70;;;;;;5009844;28;20453;-67
2021/06/24 09:04:26;;;;;;;5.40;3.23;;;20.00;99.70;;;;;;5009237;28;20818;-67
2021/06/24 09:06:54;;;;;;;4.73;3.00;;;20.30;99.70;;;;;;5009596;28;20449;-67
2021/06/24 09:09:27;;;;;;;3.20;2.50;;;20.60;99.70;;;;;;5009699;28;20449;-67
2021/06/24 09:12:03;;;;;;;4.60;2.80;;;20.50;99.70;;;;;;5009414;28;20461;-67
2021/06/24 09:14:45;;;;;;;4.50;2.90;;;20.50;99.70;;;;;;5009325;28;20456;-67
2021/06/24 09:17:14;;;;;;;5.53;3.13;;;20.50;99.70;;;;;;5009769;28;20823;-67
2021/06/24 09:19:43;;;;;;;4.67;2.83;;;20.90;99.70;;;;;;5009232;28;20485;-67
2021/06/24 09:22:12;;;;;;;4.33;2.50;;;21.40;99.70;;;;;;5009707;28;20492;-67
2021/06/24 09:24:42;;;;;;;3.53;2.30;;;21.60;99.70;;;;;;5009470;28;20449;-67
2021/06/24 09:27:26;;;;;;;4.80;2.60;;;21.80;99.70;;;;;;5009547;28;20452;-68
2021/06/24 09:30:02;;;;;;;4.43;2.70;;;21.90;99.70;;;;;;5009537;28;20449;-68
2021/06/24 09:32:31;;;;;;;5.43;2.60;;;21.80;99.70;;;;;;5015970;28;20595;-67
2021/06/24 09:34:58;;;;;;;4.23;2.63;;;21.70;99.70;;;;;;5029267;28;20440;-67
2021/06/24 09:37:24;;;;;;;3.70;2.30;;;21.60;99.70;;;;;;5031600;28;20457;-68
2021/06/24 09:39:55;;;;;;;3.30;2.33;;;21.60;99.70;;;;;;5032925;28;20456;-67
2021/06/24 09:42:23;;;;;;;2.40;1.90;;;21.20;99.70;;;;;;5033220;28;20523;-67
2021/06/24 09:44:50;;;;;;;4.20;2.50;;;21.40;99.70;;;;;;5020098;28;20453;-67
2021/06/24 09:47:20;;;;;;;3.63;2.30;;;21.70;99.70;;;;;;5013603;28;20467;-68
2021/06/24 09:50:01;;;;;;;3.20;2.00;;;21.90;99.70;;;;;;5014133;28;20495;-68
2021/06/24 09:52:28;;;;;;;5.63;2.20;;;22.40;99.70;;;;;;5013085;28;20539;-67
2021/06/24 09:55:05;;;;;;;3.73;2.33;;;22.40;99.70;;;;;;5017201;28;20826;-67
2021/06/24 09:57:32;;;;;;;3.30;2.07;;;22.20;99.70;;;;;;5013017;28;20822;-68
2021/06/24 10:00:19;;;;;;;3.13;2.10;;;23.00;99.70;;;;;;5021783;28;20445;-68
2021/06/24 10:03:01;;;;;;;4.67;2.40;;;23.60;99.70;;;;;;5012793;28;20511;-65
2021/06/24 10:05:28;;;;;;;2.77;2.03;;;23.30;99.70;;;;;;5050196;23;20494;-64
2021/06/24 10:07:55;;;;;;;3.70;2.53;;;23.30;99.70;;;;;;5036294;28;20201;-64
2021/06/24 10:10:23;;;;;;;2.83;2.13;;;23.00;99.70;;;;;;5035450;28;21206;-60
2021/06/24 10:12:50;;;;;;;3.73;2.23;;;22.70;99.70;;;;;;5035582;28;20459;-65
2021/06/24 10:15:18;;;;;;;3.47;2.30;;;21.90;99.70;;;;;;5034608;28;20580;-64
2021/06/24 10:17:45;;;;;;;3.60;2.20;;;21.60;99.70;;;;;;5035460;28;20447;-65
2021/06/24 10:20:12;;;;;;;4.73;2.47;;;21.60;99.70;;;;;;5034500;28;21028;-64
2021/06/24 10:22:41;;;;;;;3.80;2.47;;;21.60;99.70;;;;;;5034985;28;20436;-63
2021/06/24 10:25:11;;;;;;;3.90;2.70;;;21.90;99.70;;;;;;5033226;28;20831;-64
2021/06/24 10:27:41;;;;;;;3.47;2.20;;;21.80;99.70;;;;;;5034661;28;20482;-63
2021/06/24 10:30:09;;;;;;;3.07;2.30;;;21.80;99.70;;;;;;5034360;28;20448;-64
2021/06/24 10:32:36;;;;;;;3.73;2.30;;;21.90;99.70;;;;;;5041841;28;20451;-64
2021/06/24 10:35:05;;;;;;;3.57;2.33;;;22.00;99.70;;;;;;5053295;28;20470;-63
2021/06/24 10:37:33;;;;;;;3.30;2.23;;;22.00;99.70;;;;;;5054528;28;20980;-64
2021/06/24 10:40:01;;;;;;;3.57;2.20;;;22.10;99.70;;;;;;5053504;28;21085;-64
2021/06/24 10:42:31;;;;;;;3.03;2.13;;;22.20;99.70;;;;;;5053902;28;20959;-64
2021/06/24 10:45:02;;;;;;;4.10;2.40;;;22.60;99.70;;;;;;5053296;28;20471;-64
2021/06/24 10:47:37;;;;;;;3.13;2.20;;;22.60;99.70;;;;;;5028382;28;20446;-64
2021/06/24 10:50:38;;;;;;;3.67;2.30;;;22.50;99.70;;;;;;5029589;28;20451;-66
2021/06/24 10:53:47;;;;;;;2.90;2.03;;;22.30;99.70;;;;;;5034528;28;20517;-65
2021/06/24 10:56:45;;;;;;;3.50;2.20;;;22.10;99.70;;;;;;5033808;28;20449;-66
2021/06/24 10:59:26;;;;;;;3.30;2.30;;;22.10;99.70;;;;;;5034395;28;20476;-65
2021/06/24 11:02:08;;;;;;;3.20;2.10;;;22.00;99.70;;;;;;5034332;28;20476;-64
2021/06/24 11:04:38;;;;;;;2.50;2.13;;;22.10;99.70;;;;;;5034598;28;20912;-64
2021/06/24 11:07:36;;;;;;;3.00;2.10;;;22.40;99.70;;;;;;5035349;28;21004;-65
2021/06/24 11:10:31;;;;;;;10.03;2.37;;;22.60;99.70;;;;;;5001899;28;20445;-65
2021/06/24 11:13:09;;;;;;;3.63;2.57;;;22.60;99.70;;;;;;5035847;28;20481;-65
2021/06/24 11:15:50;;;;;;;4.33;2.23;;;22.20;99.70;;;;;;5035627;28;20972;-64
2021/06/24 11:18:54;;;;;;;3.80;2.30;;;21.80;99.70;;;;;;5035382;28;20485;-66
2021/06/24 11:21:51;;;;;;;3.80;2.50;;;21.60;99.70;;;;;;5034721;28;20506;-66
2021/06/24 11:24:20;;;;;;;3.30;2.17;;;21.60;99.70;;;;;;5028584;28;20561;-65
2021/06/24 11:26:49;;;;;;;4.37;2.33;;;21.50;99.70;;;;;;5035614;28;20983;-65
2021/06/24 11:29:24;;;;;;;3.00;2.20;;;21.70;99.70;;;;;;5036015;28;20524;-66
2021/06/24 11:31:54;;;;;;;4.10;2.13;;;22.00;99.70;;;;;;5028833;28;20654;-64
2021/06/24 11:34:33;;;;;;;3.37;2.13;;;22.20;99.70;;;;;;5013598;28;20473;-64
2021/06/24 11:37:02;;;;;;;3.03;2.30;;;22.40;99.70;;;;;;5013368;28;20456;-64
2021/06/24 11:39:32;;;;;;;3.30;2.10;;;22.50;99.70;;;;;;5013656;28;20481;-65
2021/06/24 11:42:00;;;;;;;3.63;2.17;;;22.60;99.70;;;;;;5014121;28;20496;-66
2021/06/24 11:44:28;;;;;;;3.70;2.03;;;22.60;99.70;;;;;;5013435;28;20869;-64
2021/06/24 11:46:58;;;;;;;2.60;2.10;;;22.70;99.70;;;;;;5013851;28;20452;-65
2021/06/24 11:49:35;;;;;;;3.27;2.10;;;22.80;99.70;;;;;;5013238;28;20445;-64
2021/06/24 12:00:40;;;;;;;3.43;2.20;;;22.90;99.70;;;;;;5013597;28;20492;-64
2021/06/24 12:03:17;;;;;;;3.30;2.27;;;22.60;99.70;;;;;;5012392;28;20454;-66
2021/06/24 12:05:51;;;;;;;2.70;2.00;;;22.80;99.70;;;;;;5012915;28;20477;-64
2021/06/24 12:08:21;;;;;;;3.70;2.10;;;22.80;99.70;;;;;;5013433;28;20445;-64
2021/06/24 12:10:49;;;;;;;3.77;2.40;;;22.80;99.70;;;;;;5015285;28;20449;-65
2021/06/24 12:13:28;;;;;;;3.60;2.10;;;23.00;99.70;;;;;;5013691;28;20453;-65
2021/06/24 12:15:55;;;;;;;4.33;2.10;;;23.00;99.70;;;;;;5016324;28;20473;-64
2021/06/24 12:18:35;;;;;;;3.40;2.30;;;23.00;99.70;;;;;;5019048;28;20449;-65
2021/06/24 12:21:05;;;;;;;2.30;1.87;;;22.70;99.70;;;;;;5016194;28;20468;-65
2021/06/24 12:23:39;;;;;;;2.87;1.90;;;22.80;99.70;;;;;;5013686;28;20453;-65
2021/06/24 12:26:06;;;;;;;2.47;1.90;;;22.90;99.70;;;;;;5017559;28;20469;-66
2021/06/24 12:28:33;;;;;;;2.47;1.90;;;23.00;99.70;;;;;;5013457;28;20440;-65
2021/06/24 12:30:59;;;;;;;2.97;1.90;;;22.90;99.70;;;;;;5014021;28;20441;-65
2021/06/24 12:33:28;;;;;;;4.93;2.23;;;22.90;99.70;;;;;;5017488;28;20453;-64
2021/06/24 12:35:55;;;;;;;2.70;1.97;;;22.80;99.70;;;;;;5015064;28;20500;-65
2021/06/24 12:38:24;;;;;;;2.60;1.87;;;22.80;99.70;;;;;;5014000;28;20458;-66
2021/06/24 12:40:54;;;;;;;2.60;2.07;;;22.80;99.70;;;;;;5032499;28;20494;-64
2021/06/24 12:43:22;;;;;;;2.97;2.07;;;22.70;99.70;;;;;;5032576;28;20975;-65
2021/06/24 12:45:52;;;;;;;3.20;2.20;;;22.60;99.70;;;;;;5032000;28;20467;-65
2021/06/24 12:48:26;;;;;;;3.93;1.87;;;22.40;99.70;;;;;;5031887;28;20539;-66
2021/06/24 12:50:53;;;;;;;3.50;2.50;;;22.40;99.70;;;;;;5032831;28;20436;-66
2021/06/24 12:53:30;;;;;;;3.13;1.93;;;22.50;99.70;;;;;;5032741;28;20444;-65
2021/06/24 12:55:57;;;;;;;2.60;1.80;;;22.50;99.70;;;;;;5028839;28;20463;-65
2021/06/24 12:58:35;;;;;;;2.87;2.20;;;22.60;99.70;;;;;;5030279;28;20444;-64
2021/06/24 13:01:10;;;;;;;2.63;2.13;;;22.90;99.70;;;;;;5023574;28;20886;-64
2021/06/24 13:03:45;;;;;;;2.60;1.70;;;23.00;99.70;;;;;;5010828;28;20455;-63
2021/06/24 13:06:19;;;;;;;2.87;1.50;;;23.00;99.70;;;;;;5010431;28;20448;-64